createdAt,value
2022-08-19T00:01:32.753Z,7.55
2022-08-19T00:06:36.396Z,11.27
2022-08-19T00:09:05.166Z,12.45
2022-08-19T00:11:32.042Z,7.85
2022-08-19T00:13:58.987Z,8.70
2022-08-19T00:16:26.972Z,9.48
2022-08-19T00:18:56.730Z,13.38
2022-08-19T00:21:25.520Z,10.65
2022-08-19T00:23:53.282Z,13.02
2022-08-19T00:26:20.976Z,10.90
2022-08-19T00:28:48.139Z,13.45
2022-08-19T00:31:15.029Z,9.85
2022-08-19T00:33:42.001Z,15.30
2022-08-19T00:36:10.378Z,11.75
2022-08-19T00:38:43.837Z,11.23
2022-08-19T00:41:14.465Z,9.73
2022-08-19T00:43:42.209Z,11.95
2022-08-19T00:46:09.678Z,10.20
2022-08-19T00:48:37.514Z,10.55
2022-08-19T00:51:05.542Z,9.77
2022-08-19T00:53:35.091Z,17.75
2022-08-19T00:56:07.196Z,12.07
2022-08-19T00:58:36.361Z,12.02
2022-08-19T01:01:05.445Z,11.85
2022-08-19T01:03:56.820Z,11.90
2022-08-19T01:06:20.569Z,12.68
2022-08-19T01:08:50.186Z,14.60
2022-08-19T01:11:17.747Z,11.85
2022-08-19T01:13:50.123Z,11.88
2022-08-19T01:16:20.273Z,19.00
2022-08-19T01:18:47.572Z,19.73
2022-08-19T01:21:38.796Z,16.23
2022-08-19T01:24:05.793Z,16.65
2022-08-19T01:26:32.641Z,13.60
2022-08-19T01:29:02.159Z,18.02
2022-08-19T01:31:32.910Z,19.77
2022-08-19T01:34:01.593Z,17.73
2022-08-19T01:36:30.431Z,26.55
2022-08-19T01:38:59.097Z,20.73
2022-08-19T01:41:26.108Z,21.35
2022-08-19T01:44:10.066Z,18.83
2022-08-19T01:46:42.462Z,24.42
2022-08-19T01:49:09.591Z,22.55
2022-08-19T01:51:40.295Z,23.60
2022-08-19T01:54:09.064Z,24.70
2022-08-19T01:56:36.442Z,24.48
2022-08-19T01:59:09.423Z,23.20
2022-08-19T02:01:36.314Z,21.92
2022-08-19T02:04:03.621Z,26.52
2022-08-19T02:06:30.737Z,26.13
2022-08-19T02:08:58.483Z,25.77
2022-08-19T02:11:34.590Z,30.30
2022-08-19T02:14:04.093Z,29.90
2022-08-19T02:16:31.715Z,30.80
2022-08-19T02:19:01.609Z,26.77
2022-08-19T02:21:29.745Z,23.23
2022-08-19T02:23:56.902Z,25.23
2022-08-19T02:26:24.529Z,26.58
2022-08-19T02:28:51.354Z,27.88
2022-08-19T02:31:20.625Z,24.95
2022-08-19T02:33:48.298Z,26.85
2022-08-19T02:36:16.811Z,26.40
2022-08-19T02:38:54.741Z,26.67
2022-08-19T02:41:27.914Z,29.50
2022-08-19T02:44:26.437Z,24.40
2022-08-19T02:46:47.840Z,24.52
2022-08-19T02:49:17.526Z,29.05
2022-08-19T02:51:46.831Z,26.52
2022-08-19T02:54:15.310Z,30.00
2022-08-19T02:56:43.646Z,23.58
2022-08-19T02:59:11.128Z,28.23
2022-08-19T03:01:41.813Z,29.98
2022-08-19T03:04:12.959Z,32.58
2022-08-19T03:06:41.705Z,30.75
2022-08-19T03:09:09.475Z,30.67
2022-08-19T03:11:36.453Z,31.88
2022-08-19T03:14:04.672Z,35.83
2022-08-19T03:16:36.621Z,32.92
2022-08-19T03:19:03.932Z,35.78
2022-08-19T03:21:33.514Z,32.67
2022-08-19T03:24:03.493Z,28.85
2022-08-19T03:26:31.111Z,26.25
2022-08-19T03:29:04.943Z,20.20
2022-08-19T03:31:44.644Z,17.75
2022-08-19T03:34:22.992Z,14.73
2022-08-19T03:36:49.947Z,14.43
2022-08-19T03:39:17.612Z,11.88
2022-08-19T03:41:48.208Z,13.68
2022-08-19T03:44:19.493Z,11.95
2022-08-19T03:46:56.771Z,12.70
2022-08-19T03:49:28.225Z,11.25
2022-08-19T03:51:57.541Z,12.70
2022-08-19T03:54:26.250Z,12.90
2022-08-19T03:56:55.006Z,10.50
2022-08-19T03:59:26.934Z,12.45
2022-08-19T04:01:55.979Z,14.80
2022-08-19T04:04:23.307Z,9.13
2022-08-19T04:06:51.725Z,9.93
2022-08-19T04:09:20.656Z,10.60
2022-08-19T04:11:51.484Z,8.30
2022-08-19T04:14:20.978Z,10.00
2022-08-19T04:16:48.807Z,7.78
2022-08-19T04:19:16.964Z,9.70
2022-08-19T04:21:49.478Z,11.50
2022-08-19T04:26:46.674Z,10.38
2022-08-19T04:29:17.103Z,5.85
2022-08-19T04:31:46.161Z,9.88
2022-08-19T04:34:16.169Z,6.72
2022-08-19T04:36:45.697Z,7.10
2022-08-19T04:39:19.485Z,6.97
2022-08-19T04:42:06.095Z,8.43
2022-08-19T04:44:35.559Z,7.53
2022-08-19T04:47:11.272Z,8.93
2022-08-19T04:49:38.772Z,8.18
2022-08-19T04:52:05.754Z,7.22
2022-08-19T04:54:37.883Z,9.18
2022-08-19T04:57:08.124Z,9.65
2022-08-19T04:59:36.251Z,9.52
2022-08-19T05:02:04.606Z,7.60
2022-08-19T05:04:33.068Z,7.03
2022-08-19T05:07:02.232Z,8.95
2022-08-19T05:09:52.589Z,8.77
2022-08-19T05:12:18.831Z,6.60
2022-08-19T05:14:48.035Z,10.50
2022-08-19T05:17:34.924Z,9.40
2022-08-19T05:20:21.402Z,7.25
2022-08-19T05:22:48.904Z,8.82
2022-08-19T05:25:20.519Z,5.75
2022-08-19T05:27:48.299Z,5.90
2022-08-19T05:30:15.537Z,8.63
2022-08-19T05:32:42.393Z,6.30
2022-08-19T05:35:10.467Z,10.02
2022-08-19T05:37:37.355Z,6.97
2022-08-19T05:40:05.217Z,10.60
2022-08-19T05:42:32.619Z,6.28
2022-08-19T05:44:59.579Z,6.40
2022-08-19T05:47:26.470Z,6.93
2022-08-19T05:49:53.382Z,7.93
2022-08-19T05:52:25.776Z,7.82
2022-08-19T05:54:56.742Z,7.57
2022-08-19T05:57:25.437Z,9.35
2022-08-19T05:59:57.999Z,7.43
2022-08-19T06:02:31.833Z,8.23
2022-08-19T06:05:00.951Z,7.20
2022-08-19T06:07:28.463Z,9.43
2022-08-19T06:10:00.682Z,8.13
2022-08-19T06:12:35.328Z,7.82
2022-08-19T06:15:09.052Z,6.82
2022-08-19T06:17:36.368Z,7.80
2022-08-19T06:20:08.625Z,5.97
2022-08-19T06:22:39.826Z,7.93
2022-08-19T06:25:07.354Z,7.50
2022-08-19T06:27:34.817Z,5.97
2022-08-19T06:30:03.838Z,6.97
2022-08-19T06:32:31.289Z,8.98
2022-08-19T06:34:58.061Z,10.15
2022-08-19T06:37:25.154Z,6.30
2022-08-19T06:39:52.249Z,7.88
2022-08-19T06:42:19.634Z,9.48
2022-08-19T06:44:50.316Z,7.95
2022-08-19T06:47:25.226Z,9.50
2022-08-19T06:50:05.579Z,9.88
2022-08-19T06:52:36.387Z,7.80
2022-08-19T06:55:05.893Z,8.95
2022-08-19T06:57:33.819Z,8.00
2022-08-19T07:00:01.130Z,9.15
2022-08-19T07:02:27.982Z,7.40
2022-08-19T07:04:55.174Z,5.28
2022-08-19T07:07:22.366Z,9.30
2022-08-19T07:09:59.995Z,8.60
2022-08-19T07:12:32.442Z,9.30
2022-08-19T07:14:59.894Z,8.93
2022-08-19T07:17:27.607Z,10.20
2022-08-19T07:19:54.865Z,8.35
2022-08-19T07:22:24.390Z,12.68
2022-08-19T07:24:52.604Z,9.38
2022-08-19T07:27:24.862Z,8.70
2022-08-19T07:29:55.847Z,4.70
2022-08-19T07:32:23.879Z,8.67
2022-08-19T07:34:50.740Z,8.98
2022-08-19T07:37:18.207Z,6.88
2022-08-19T07:39:45.307Z,5.55
2022-08-19T07:42:13.363Z,8.38
2022-08-19T07:47:50.228Z,9.27
2022-08-19T07:50:00.953Z,8.00
2022-08-19T07:52:27.798Z,7.00
2022-08-19T07:54:54.666Z,5.07
2022-08-19T07:57:21.875Z,8.35
2022-08-19T07:59:48.758Z,5.82
2022-08-19T08:02:15.664Z,5.90
2022-08-19T08:05:01.072Z,7.63
2022-08-19T08:07:46.665Z,8.68
2022-08-19T08:10:20.571Z,7.57
2022-08-19T08:12:52.283Z,6.88
2022-08-19T08:15:41.313Z,9.82
2022-08-19T08:18:09.195Z,9.55
2022-08-19T08:20:36.101Z,7.93
2022-08-19T08:23:21.694Z,6.88
2022-08-19T08:25:50.021Z,9.70
2022-08-19T08:28:18.174Z,6.10
2022-08-19T08:30:46.808Z,5.00
2022-08-19T08:35:43.743Z,10.70
2022-08-19T08:38:10.565Z,5.07
2022-08-19T08:40:40.496Z,9.05
2022-08-19T08:43:24.354Z,7.15
2022-08-19T08:46:05.058Z,6.82
2022-08-19T08:48:37.060Z,8.27
2022-08-19T08:51:10.088Z,8.38
2022-08-19T08:53:41.427Z,5.55
2022-08-19T08:56:13.518Z,9.63
2022-08-19T08:58:45.645Z,6.47
2022-08-19T09:01:13.329Z,7.22
2022-08-19T09:03:43.720Z,8.95
2022-08-19T09:06:18.990Z,7.65
2022-08-19T09:08:56.596Z,9.50
2022-08-19T09:11:42.496Z,10.10
2022-08-19T09:14:49.905Z,7.72
2022-08-19T09:17:19.481Z,10.57
2022-08-19T09:20:09.475Z,9.50
2022-08-19T09:22:38.519Z,7.40
2022-08-19T09:25:07.908Z,7.65
2022-08-19T09:27:42.524Z,11.57
2022-08-19T09:30:27.561Z,10.35
2022-08-19T09:32:56.142Z,6.95
2022-08-19T09:35:26.108Z,6.70
2022-08-19T09:37:57.646Z,8.75
2022-08-19T09:40:30.093Z,7.10
2022-08-19T09:42:58.807Z,12.65
2022-08-19T09:45:25.607Z,10.32
2022-08-19T09:47:54.543Z,6.63
2022-08-19T09:50:23.774Z,11.98
2022-08-19T09:52:54.193Z,8.32
2022-08-19T09:55:31.942Z,11.95
2022-08-19T09:58:02.820Z,6.70
2022-08-19T10:00:31.313Z,8.57
2022-08-19T10:02:58.403Z,8.18
2022-08-19T10:05:44.165Z,10.75
2022-08-19T10:08:13.427Z,8.95
2022-08-19T10:10:47.217Z,7.15
2022-08-19T10:13:17.070Z,7.70
2022-08-19T10:15:47.549Z,13.82
2022-08-19T10:18:19.107Z,6.32
2022-08-19T10:20:51.311Z,11.95
2022-08-19T10:23:21.109Z,7.85
2022-08-19T10:25:49.011Z,7.97
2022-08-19T10:28:16.138Z,6.82
2022-08-19T10:30:46.498Z,9.82
2022-08-19T10:33:15.035Z,5.10
2022-08-19T10:35:42.656Z,7.50
2022-08-19T10:38:31.432Z,7.50
2022-08-19T10:40:59.631Z,7.85
2022-08-19T10:43:26.712Z,9.85
2022-08-19T10:45:57.729Z,7.20
2022-08-19T10:48:24.718Z,8.98
2022-08-19T10:51:10.209Z,6.32
2022-08-19T10:53:50.457Z,7.10
2022-08-19T10:56:36.270Z,9.20
2022-08-19T10:59:04.158Z,8.88
2022-08-19T11:01:34.265Z,9.07
2022-08-19T11:04:02.777Z,9.85
2022-08-19T11:06:31.105Z,7.95
2022-08-19T11:08:57.949Z,10.57
2022-08-19T11:11:24.867Z,8.23
2022-08-19T11:13:52.018Z,6.65
2022-08-19T11:16:22.676Z,9.15
2022-08-19T11:18:52.596Z,7.63
2022-08-19T11:21:22.180Z,11.38
2022-08-19T11:23:52.283Z,7.35
2022-08-19T11:26:20.901Z,8.27
2022-08-19T11:28:48.703Z,6.13
2022-08-19T11:31:18.680Z,7.88
2022-08-19T11:33:47.934Z,8.48
2022-08-19T11:36:15.810Z,6.95
2022-08-19T11:38:43.345Z,12.32
2022-08-19T11:41:10.232Z,9.73
2022-08-19T11:43:37.839Z,9.45
2022-08-19T11:46:10.882Z,10.75
2022-08-19T11:48:38.431Z,8.32
2022-08-19T11:51:08.600Z,11.05
2022-08-19T11:53:36.690Z,6.95
2022-08-19T11:56:04.936Z,5.97
2022-08-19T11:58:32.308Z,5.70
2022-08-19T12:00:59.489Z,6.32
2022-08-19T12:03:26.816Z,11.23
2022-08-19T12:05:53.790Z,7.38
2022-08-19T12:08:20.908Z,6.10
2022-08-19T12:10:47.858Z,8.20
2022-08-19T12:13:19.329Z,7.03
2022-08-19T12:15:48.571Z,6.68
2022-08-19T12:18:15.477Z,6.65
2022-08-19T12:20:44.123Z,5.75
2022-08-19T12:23:11.330Z,11.07
2022-08-19T12:25:38.864Z,8.25
2022-08-19T12:28:05.653Z,6.97
2022-08-19T12:30:32.382Z,6.90
2022-08-19T12:32:59.263Z,10.80
2022-08-19T12:35:26.133Z,6.25
2022-08-19T12:37:56.846Z,6.90
2022-08-19T12:40:26.451Z,9.88
2022-08-19T12:42:54.974Z,7.25
2022-08-19T12:45:22.670Z,5.97
2022-08-19T12:47:50.521Z,5.65
2022-08-19T12:50:22.457Z,6.03
2022-08-19T12:52:49.435Z,10.32
2022-08-19T12:55:16.584Z,5.32
2022-08-19T12:57:43.514Z,7.20
2022-08-19T13:00:14.666Z,5.82
2022-08-19T13:02:47.595Z,8.50
2022-08-19T13:05:16.923Z,5.88
2022-08-19T13:07:47.185Z,5.38
2022-08-19T13:10:16.946Z,8.30
2022-08-19T13:12:45.599Z,12.57
2022-08-19T13:15:15.164Z,6.82
2022-08-19T13:17:44.168Z,8.68
2022-08-19T13:20:12.438Z,7.35
2022-08-19T13:22:39.677Z,6.28
2022-08-19T13:25:08.008Z,5.40
2022-08-19T13:27:35.537Z,8.07
2022-08-19T13:30:22.808Z,5.82
2022-08-19T13:33:08.264Z,5.95
2022-08-19T13:35:35.089Z,8.80
2022-08-19T13:38:06.368Z,7.90
2022-08-19T13:40:38.971Z,8.23
2022-08-19T13:43:23.150Z,7.28
2022-08-19T13:48:19.337Z,10.23
2022-08-19T13:50:48.394Z,8.05
2022-08-19T13:53:15.744Z,6.97
2022-08-19T13:55:44.408Z,9.05
2022-08-19T13:58:12.090Z,7.75
2022-08-19T14:00:45.561Z,9.10
2022-08-19T14:03:12.505Z,7.22
2022-08-19T14:05:40.317Z,6.63
2022-08-19T14:08:07.236Z,6.35
2022-08-19T14:10:34.322Z,6.97
2022-08-19T14:13:04.331Z,10.10
2022-08-19T14:15:31.422Z,8.18
2022-08-19T14:17:58.725Z,6.75
2022-08-19T14:20:26.496Z,5.00
2022-08-19T14:22:54.985Z,7.00
2022-08-19T14:25:29.699Z,8.95
2022-08-19T14:27:56.993Z,9.90
2022-08-19T14:30:32.630Z,8.13
2022-08-19T14:33:01.924Z,7.07
2022-08-19T14:35:30.744Z,12.32
2022-08-19T14:37:59.012Z,6.47
2022-08-19T14:40:29.083Z,9.52
2022-08-19T14:43:04.783Z,7.95
2022-08-19T14:45:37.953Z,9.27
2022-08-19T14:48:07.032Z,9.82
2022-08-19T14:50:35.134Z,8.70
2022-08-19T14:53:08.182Z,7.50
2022-08-19T14:55:44.580Z,7.22
2022-08-19T14:58:29.217Z,7.35
2022-08-19T15:01:00.332Z,7.47
2022-08-19T15:03:27.405Z,5.22
2022-08-19T15:05:54.491Z,8.23
2022-08-19T15:08:25.677Z,8.57
2022-08-19T15:10:53.335Z,15.15
2022-08-19T15:13:20.365Z,8.88
2022-08-19T15:15:48.613Z,7.68
2022-08-19T15:18:15.632Z,5.10
2022-08-19T15:20:44.488Z,7.75
2022-08-19T15:23:18.183Z,7.53
2022-08-19T15:25:45.129Z,9.25
2022-08-19T15:28:12.178Z,10.95
2022-08-19T15:30:41.241Z,11.27
2022-08-19T15:33:08.370Z,7.55
2022-08-19T15:35:35.264Z,7.82
2022-08-19T15:38:02.253Z,6.97
2022-08-19T15:40:29.292Z,7.28
2022-08-19T15:42:58.825Z,11.48
2022-08-19T15:45:32.625Z,8.45
2022-08-19T15:48:01.111Z,8.38
2022-08-19T15:50:28.580Z,7.68
2022-08-19T15:53:01.055Z,8.25
2022-08-19T15:58:32.330Z,8.00
2022-08-19T16:01:20.461Z,7.43
2022-08-19T16:04:11.305Z,5.70
2022-08-19T16:06:50.917Z,12.55
2022-08-19T16:09:24.913Z,8.85
2022-08-19T16:11:56.721Z,8.30
2022-08-19T16:14:25.219Z,8.18
2022-08-19T16:16:52.269Z,8.07
2022-08-19T16:19:20.281Z,11.50
2022-08-19T16:21:49.749Z,6.72
2022-08-19T16:24:19.403Z,7.68
2022-08-19T16:26:47.475Z,10.00
2022-08-19T16:29:27.722Z,6.90
2022-08-19T16:32:02.912Z,7.47
2022-08-19T16:34:30.981Z,8.27
2022-08-19T16:36:58.321Z,6.57
2022-08-19T16:39:26.477Z,9.25
2022-08-19T16:41:53.360Z,8.00
2022-08-19T16:44:21.135Z,6.80
2022-08-19T16:46:55.708Z,8.40
2022-08-19T16:49:53.526Z,11.65
2022-08-19T16:52:14.956Z,6.80
2022-08-19T16:54:43.605Z,9.35
2022-08-19T16:57:12.312Z,8.82
2022-08-19T16:59:48.343Z,6.57
2022-08-19T17:02:17.884Z,6.35
2022-08-19T17:04:57.421Z,8.77
2022-08-19T17:07:28.776Z,8.23
2022-08-19T17:09:56.506Z,9.13
2022-08-19T17:12:30.518Z,5.43
2022-08-19T17:15:01.067Z,7.22
2022-08-19T17:17:29.533Z,6.97
2022-08-19T17:19:59.131Z,5.60
2022-08-19T17:22:26.187Z,8.07
2022-08-19T17:24:53.235Z,8.20
2022-08-19T17:27:23.742Z,8.95
2022-08-19T17:29:52.952Z,9.15
2022-08-19T17:32:25.198Z,7.93
2022-08-19T17:34:54.378Z,9.02
2022-08-19T17:37:22.009Z,6.70
2022-08-19T17:39:49.112Z,8.77
2022-08-19T17:42:15.928Z,9.25
2022-08-19T17:44:43.215Z,9.80
2022-08-19T17:47:17.339Z,9.65
2022-08-19T17:49:44.265Z,9.80
2022-08-19T17:52:11.944Z,11.10
2022-08-19T17:54:38.863Z,9.52
2022-08-19T17:57:05.882Z,6.72
2022-08-19T17:59:32.691Z,10.02
2022-08-19T18:02:00.128Z,10.75
2022-08-19T18:04:27.058Z,8.93
2022-08-19T18:06:55.574Z,7.68
2022-08-19T18:09:28.682Z,7.72
2022-08-19T18:14:37.560Z,8.10
2022-08-19T18:17:10.834Z,7.07
2022-08-19T18:19:41.075Z,7.43
2022-08-19T18:22:09.131Z,7.55
2022-08-19T18:24:39.967Z,8.43
2022-08-19T18:27:07.230Z,9.05
2022-08-19T18:29:34.258Z,10.88
2022-08-19T18:32:01.050Z,12.68
2022-08-19T18:34:29.538Z,7.30
2022-08-19T18:36:56.388Z,9.00
2022-08-19T18:39:44.277Z,9.77
2022-08-19T18:42:34.794Z,9.20
2022-08-19T18:45:20.517Z,9.98
2022-08-19T18:48:06.076Z,6.18
2022-08-19T18:50:34.604Z,9.57
2022-08-19T18:53:01.921Z,8.70
2022-08-19T18:55:29.273Z,12.95
2022-08-19T18:57:56.452Z,6.30
2022-08-19T19:00:23.711Z,11.95
2022-08-19T19:02:50.544Z,8.73
2022-08-19T19:05:17.464Z,6.50
2022-08-19T19:07:44.270Z,13.80
2022-08-19T19:10:11.129Z,9.57
2022-08-19T19:12:47.649Z,8.20
2022-08-19T19:15:14.567Z,10.10
2022-08-19T19:17:42.031Z,9.25
2022-08-19T19:20:09.041Z,11.68
2022-08-19T19:22:36.168Z,8.52
2022-08-19T19:25:03.257Z,9.50
2022-08-19T19:27:30.144Z,9.65
2022-08-19T19:29:57.396Z,9.98
2022-08-19T19:32:30.936Z,8.82
2022-08-19T19:34:57.809Z,10.02
2022-08-19T19:37:24.580Z,11.38
2022-08-19T19:39:52.569Z,12.25
2022-08-19T19:42:23.753Z,9.82
2022-08-19T19:44:52.580Z,14.88
2022-08-19T19:47:21.449Z,11.27
2022-08-19T19:50:13.922Z,13.65
2022-08-19T19:52:39.785Z,10.40
2022-08-19T19:55:09.382Z,10.30
2022-08-19T19:57:37.431Z,11.70
2022-08-19T20:00:05.533Z,12.50
2022-08-19T20:02:32.417Z,13.55
2022-08-19T20:04:59.283Z,13.13
2022-08-19T20:07:46.326Z,15.77
2022-08-19T20:10:13.764Z,14.55
2022-08-19T20:12:40.614Z,15.93
2022-08-19T20:15:08.847Z,22.42
2022-08-19T20:17:42.429Z,41.95
2022-08-19T20:20:11.895Z,48.60
2022-08-19T20:22:43.174Z,54.55
2022-08-19T20:25:11.747Z,43.15
2022-08-19T20:27:40.138Z,37.58
2022-08-19T20:30:13.722Z,26.98
2022-08-19T20:32:47.701Z,26.73
2022-08-19T20:35:17.021Z,23.33
2022-08-19T20:37:43.961Z,20.80
2022-08-19T20:40:13.092Z,20.25
2022-08-19T20:42:41.219Z,20.63
2022-08-19T20:45:21.556Z,19.70
2022-08-19T20:47:59.355Z,18.17
2022-08-19T20:50:26.312Z,17.55
2022-08-19T20:52:57.244Z,19.77
2022-08-19T20:55:24.176Z,19.90
2022-08-19T20:57:51.710Z,21.45
2022-08-19T21:00:19.025Z,20.05
2022-08-19T21:02:46.980Z,20.42
2022-08-19T21:05:15.077Z,22.00
2022-08-19T21:07:42.733Z,18.08
2022-08-19T21:10:09.579Z,20.48
2022-08-19T21:12:36.404Z,24.63
2022-08-19T21:15:04.393Z,24.02
2022-08-19T21:17:31.689Z,25.75
2022-08-19T21:19:58.545Z,26.02
2022-08-19T21:22:25.382Z,23.30
2022-08-19T21:24:52.266Z,20.10
2022-08-19T21:27:19.038Z,21.77
2022-08-19T21:29:45.844Z,22.15
2022-08-19T21:32:14.500Z,22.75
2022-08-19T21:34:44.117Z,23.00
2022-08-19T21:37:24.989Z,22.40
2022-08-19T21:39:52.510Z,22.95
2022-08-19T21:42:19.466Z,23.65
2022-08-19T21:44:46.335Z,28.08
2022-08-19T21:47:13.281Z,23.60
2022-08-19T21:49:40.141Z,21.90
2022-08-19T21:52:07.295Z,23.48
2022-08-19T21:54:38.331Z,20.67
2022-08-19T21:57:10.070Z,21.75
2022-08-19T21:59:41.162Z,18.95
2022-08-19T22:02:20.478Z,17.25
2022-08-19T22:04:52.454Z,22.13
2022-08-19T22:07:22.484Z,24.05
2022-08-19T22:09:51.621Z,23.52
2022-08-19T22:12:29.611Z,22.17
2022-08-19T22:14:57.886Z,21.33
2022-08-19T22:17:27.448Z,23.00
2022-08-19T22:19:56.055Z,21.92
2022-08-19T22:22:29.432Z,24.40
2022-08-19T22:25:07.542Z,22.42
2022-08-19T22:27:35.520Z,24.63
2022-08-19T22:30:04.785Z,23.17
2022-08-19T22:32:31.575Z,27.77
2022-08-19T22:34:59.725Z,25.42
2022-08-19T22:37:29.450Z,23.27
2022-08-19T22:39:56.323Z,30.65
2022-08-19T22:42:25.303Z,27.38
2022-08-19T22:45:01.520Z,24.77
2022-08-19T22:47:29.438Z,30.75
2022-08-19T22:49:59.124Z,31.63
2022-08-19T22:52:26.007Z,27.17
2022-08-19T22:54:55.478Z,32.22
2022-08-19T22:57:23.056Z,30.52
2022-08-19T22:59:51.890Z,29.10
2022-08-19T23:02:26.285Z,35.83
2022-08-19T23:04:54.079Z,32.25
2022-08-19T23:13:22.964Z,31.77
2022-08-19T23:15:51.011Z,33.47
2022-08-19T23:18:17.929Z,38.92
2022-08-19T23:20:44.790Z,40.42
